Time;durP1;ratioP1;P1;durP2;ratioP2;P2;SDS_P1;SDS_P2;PMS_P1;PMS_P2;Temp;Humidity;BMP_temperature;BMP_pressure;BME280_temperature;BME280_humidity;BME280_pressure;Samples;Min_cycle;Max_cycle;Signal;HPM_P1;HPM_P2
2023/08/08 00:01:07;;;;;;;2.25;0.70;;;13.90;99.90;;;;;;4930838;28;20452;-85
2023/08/08 00:03:34;;;;;;;3.28;0.90;;;13.90;99.90;;;;;;4940372;28;20036;-85
2023/08/08 00:06:00;;;;;;;2.80;0.88;;;13.90;99.90;;;;;;4924933;29;20054;-85
2023/08/08 00:08:25;;;;;;;3.35;1.05;;;13.90;99.90;;;;;;4941000;29;20055;-84
2023/08/08 00:10:51;;;;;;;3.95;0.70;;;13.80;99.90;;;;;;4939993;29;20364;-82
2023/08/08 00:13:17;;;;;;;3.67;1.10;;;13.80;99.90;;;;;;4923467;29;20042;-84
2023/08/08 00:15:42;;;;;;;5.32;1.00;;;13.80;99.90;;;;;;4930643;28;20031;-84
2023/08/08 00:18:08;;;;;;;3.25;0.95;;;13.80;99.90;;;;;;4929283;28;20087;-83
2023/08/08 00:20:34;;;;;;;3.00;1.30;;;13.70;99.90;;;;;;4946500;28;20035;-82
2023/08/08 00:23:00;;;;;;;4.63;1.40;;;13.60;99.90;;;;;;4938958;29;20031;-82
2023/08/08 00:25:25;;;;;;;4.43;1.27;;;13.60;99.90;;;;;;4931571;29;20031;-85
2023/08/08 00:27:51;;;;;;;4.13;1.92;;;13.60;99.90;;;;;;4940466;29;20031;-85
2023/08/08 00:30:17;;;;;;;3.05;1.52;;;13.60;99.90;;;;;;4945940;29;20428;-85
2023/08/08 00:32:43;;;;;;;2.95;1.20;;;13.70;99.90;;;;;;4942147;28;20032;-86
2023/08/08 00:35:09;;;;;;;2.88;1.10;;;13.60;99.90;;;;;;4947473;29;20440;-87
2023/08/08 00:37:35;;;;;;;4.57;1.35;;;13.60;99.90;;;;;;4923442;29;20032;-83
2023/08/08 00:40:01;;;;;;;2.58;0.63;;;13.60;99.90;;;;;;4922906;29;20028;-82
2023/08/08 00:42:26;;;;;;;3.42;1.20;;;13.60;99.90;;;;;;4946480;28;20444;-85
2023/08/08 00:44:52;;;;;;;3.33;0.70;;;13.70;99.90;;;;;;4943827;29;20103;-83
2023/08/08 00:47:18;;;;;;;5.25;1.77;;;13.70;99.90;;;;;;4946811;28;20078;-82
2023/08/08 00:49:46;;;;;;;2.92;1.00;;;13.70;99.90;;;;;;4940556;28;20031;-83
2023/08/08 00:52:12;;;;;;;5.10;0.95;;;13.70;99.90;;;;;;4930584;28;20035;-82
2023/08/08 00:54:38;;;;;;;3.30;1.30;;;13.70;99.90;;;;;;4931131;28;20042;-82
2023/08/08 00:57:04;;;;;;;2.33;0.90;;;13.80;99.90;;;;;;4941737;28;20480;-83
2023/08/08 00:59:30;;;;;;;4.95;0.90;;;13.80;99.90;;;;;;4941832;29;20079;-82
2023/08/08 01:01:57;;;;;;;2.90;1.17;;;13.80;99.90;;;;;;4931969;29;20031;-82
2023/08/08 01:04:26;;;;;;;4.13;1.30;;;13.80;99.90;;;;;;4944307;28;20407;-81
2023/08/08 01:07:27;;;;;;;3.93;1.47;;;13.80;99.90;;;;;;4943469;29;20372;-82
2023/08/08 01:10:30;;;;;;;2.97;1.35;;;13.90;99.90;;;;;;4928926;29;20042;-82
2023/08/08 01:13:05;;;;;;;3.95;1.10;;;13.80;99.90;;;;;;4886571;29;20551;-90
2023/08/08 01:15:35;;;;;;;2.35;0.65;;;13.80;99.90;;;;;;4916704;29;20033;-87
2023/08/08 01:18:03;;;;;;;;;;;13.90;99.90;;;;;;4912536;29;20086;-84
2023/08/08 01:20:30;;;;;;;3.25;1.13;;;13.80;99.90;;;;;;4893265;29;19911;-85
2023/08/08 01:23:05;;;;;;;2.90;0.80;;;13.90;99.90;;;;;;4892848;29;20048;-82
2023/08/08 01:25:31;;;;;;;3.88;1.33;;;13.90;99.90;;;;;;4894983;29;20024;-82
2023/08/08 01:27:57;;;;;;;5.05;1.33;;;13.90;99.90;;;;;;4902065;29;20485;-85
2023/08/08 01:30:23;;;;;;;3.47;1.15;;;13.90;99.90;;;;;;4909256;29;20024;-87
2023/08/08 01:32:48;;;;;;;3.15;0.90;;;13.90;99.90;;;;;;4902750;29;20420;-85
2023/08/08 01:35:15;;;;;;;2.83;0.93;;;13.90;99.90;;;;;;4909777;29;20052;-85
2023/08/08 01:37:45;;;;;;;4.00;1.00;;;13.90;99.90;;;;;;4921048;29;20141;-83
2023/08/08 01:40:15;;;;;;;5.15;1.08;;;13.80;99.90;;;;;;4896270;29;20138;-81
2023/08/08 01:42:46;;;;;;;6.03;1.05;;;13.90;99.90;;;;;;4917786;29;20035;-85
2023/08/08 01:45:13;;;;;;;4.18;1.33;;;13.90;99.90;;;;;;4914510;29;20036;-81
2023/08/08 01:47:38;;;;;;;3.15;0.90;;;13.90;99.90;;;;;;4941860;29;20113;-82
2023/08/08 01:50:05;;;;;;;5.53;1.17;;;13.90;99.90;;;;;;4946135;29;20081;-84
2023/08/08 01:52:31;;;;;;;4.10;1.20;;;13.80;99.90;;;;;;4948604;29;20032;-85
2023/08/08 01:54:57;;;;;;;3.30;1.20;;;13.80;99.90;;;;;;4945849;29;20035;-82
2023/08/08 01:57:22;;;;;;;4.95;1.08;;;13.90;99.90;;;;;;4930198;29;20045;-85
2023/08/08 01:59:49;;;;;;;6.20;1.38;;;13.80;99.90;;;;;;4950892;28;20150;-84
2023/08/08 02:02:17;;;;;;;3.95;0.98;;;13.80;99.90;;;;;;4949314;28;20050;-82
2023/08/08 02:04:43;;;;;;;4.10;0.98;;;13.70;99.90;;;;;;4940205;29;20122;-83
2023/08/08 02:07:09;;;;;;;3.35;1.00;;;13.70;99.90;;;;;;4945623;29;20147;-83
2023/08/08 02:09:34;;;;;;;3.42;0.73;;;13.70;99.90;;;;;;4948036;28;20167;-83
2023/08/08 02:12:00;;;;;;;4.40;1.10;;;13.70;99.90;;;;;;4925229;29;20032;-83
2023/08/08 02:14:26;;;;;;;5.80;1.33;;;13.70;99.90;;;;;;4926083;29;20126;-83
2023/08/08 02:16:53;;;;;;;4.07;1.10;;;13.80;99.90;;;;;;4947957;29;20082;-81
2023/08/08 02:19:18;;;;;;;5.93;1.80;;;13.80;99.90;;;;;;4942068;28;20441;-84
2023/08/08 02:21:44;;;;;;;4.75;0.90;;;13.90;99.90;;;;;;4940624;28;20361;-82
2023/08/08 02:24:10;;;;;;;5.25;1.00;;;13.90;99.90;;;;;;4923732;29;20473;-83
2023/08/08 02:26:36;;;;;;;5.78;1.23;;;13.80;99.90;;;;;;4933627;28;20039;-84
2023/08/08 02:29:05;;;;;;;8.63;1.40;;;13.90;99.90;;;;;;4949536;28;20042;-81
2023/08/08 02:31:31;;;;;;;3.25;1.20;;;13.90;99.90;;;;;;4945711;29;20399;-82
2023/08/08 02:33:57;;;;;;;2.50;0.77;;;13.90;99.90;;;;;;4946916;29;20062;-85
2023/08/08 02:36:23;;;;;;;5.25;1.35;;;13.90;99.90;;;;;;4942425;29;20024;-82
2023/08/08 02:38:53;;;;;;;5.13;1.40;;;13.90;99.90;;;;;;4925403;29;20075;-84
2023/08/08 02:41:19;;;;;;;6.55;0.80;;;13.90;99.90;;;;;;4941680;29;20024;-84
2023/08/08 02:43:45;;;;;;;3.60;1.30;;;13.90;99.90;;;;;;4951944;28;20043;-84
2023/08/08 02:46:11;;;;;;;4.22;1.10;;;13.90;99.90;;;;;;4934055;29;20493;-85
2023/08/08 02:48:37;;;;;;;5.07;1.30;;;13.90;99.90;;;;;;4932699;29;20134;-85
2023/08/08 02:51:02;;;;;;;5.10;0.98;;;13.90;99.90;;;;;;4944922;29;20028;-87
2023/08/08 02:53:28;;;;;;;5.25;1.17;;;13.80;99.90;;;;;;4928272;29;20238;-87
2023/08/08 02:55:54;;;;;;;6.10;1.58;;;13.80;99.90;;;;;;4944831;29;20055;-84
2023/08/08 02:58:20;;;;;;;7.43;1.15;;;13.70;99.90;;;;;;4944921;28;20436;-84
2023/08/08 03:00:46;;;;;;;6.18;1.45;;;13.70;99.90;;;;;;4924206;29;20092;-87
2023/08/08 03:03:14;;;;;;;5.80;1.05;;;13.70;99.90;;;;;;4933163;28;20019;-82
2023/08/08 03:05:43;;;;;;;2.92;1.10;;;13.70;99.90;;;;;;4933822;29;20034;-83
2023/08/08 03:08:09;;;;;;;3.13;0.70;;;13.60;99.90;;;;;;4946648;29;20039;-86
2023/08/08 03:10:35;;;;;;;3.40;0.70;;;13.60;99.90;;;;;;4944991;29;20380;-85
2023/08/08 03:13:01;;;;;;;1.95;0.60;;;13.50;99.90;;;;;;4932302;29;20488;-86
2023/08/08 03:15:27;;;;;;;3.55;1.10;;;13.50;99.90;;;;;;4941799;29;20024;-82
2023/08/08 03:17:55;;;;;;;5.43;1.00;;;13.50;99.90;;;;;;4932130;29;20046;-82
2023/08/08 03:20:21;;;;;;;3.22;1.02;;;13.60;99.90;;;;;;4924867;29;20167;-82
2023/08/08 03:22:48;;;;;;;3.47;0.70;;;13.50;99.90;;;;;;4931109;28;20038;-82
2023/08/08 03:25:14;;;;;;;5.43;1.15;;;13.50;99.90;;;;;;4943600;29;20036;-84
2023/08/08 03:27:40;;;;;;;3.53;0.88;;;13.50;99.90;;;;;;4945139;29;20031;-83
2023/08/08 03:30:08;;;;;;;3.65;0.77;;;13.50;99.90;;;;;;4927393;29;20032;-87
2023/08/08 03:32:39;;;;;;;3.00;0.80;;;13.50;99.90;;;;;;4951909;28;20547;-84
2023/08/08 03:35:06;;;;;;;4.55;1.52;;;13.40;99.90;;;;;;4926407;29;20047;-83
2023/08/08 03:37:32;;;;;;;4.63;1.13;;;13.40;99.90;;;;;;4932979;28;20030;-88
2023/08/08 03:39:58;;;;;;;4.55;1.60;;;13.40;99.90;;;;;;4943884;29;20031;-86
2023/08/08 03:42:23;;;;;;;3.70;1.63;;;13.40;99.90;;;;;;4946631;29;20024;-86
2023/08/08 03:44:49;;;;;;;5.25;1.10;;;13.40;99.90;;;;;;4944805;28;20039;-82
2023/08/08 03:47:15;;;;;;;2.05;0.70;;;13.40;99.90;;;;;;4932293;29;20546;-84
2023/08/08 03:49:41;;;;;;;3.67;1.00;;;13.40;99.90;;;;;;4932875;29;20723;-82
2023/08/08 03:52:07;;;;;;;7.57;1.20;;;13.40;99.90;;;;;;4947170;28;20114;-87
2023/08/08 03:54:32;;;;;;;6.15;1.13;;;13.40;99.90;;;;;;4926300;29;20051;-85
2023/08/08 03:56:58;;;;;;;7.05;1.23;;;13.30;99.90;;;;;;4922584;29;20055;-85
2023/08/08 03:59:24;;;;;;;4.13;0.70;;;13.30;99.90;;;;;;4943041;29;20028;-86
2023/08/08 04:01:50;;;;;;;3.13;1.00;;;13.30;99.90;;;;;;4925022;29;20036;-83
2023/08/08 04:04:16;;;;;;;2.95;0.73;;;13.30;99.90;;;;;;4930936;28;20031;-84
2023/08/08 04:06:42;;;;;;;2.80;0.80;;;13.30;99.90;;;;;;4930462;29;20027;-85
2023/08/08 04:09:08;;;;;;;3.13;0.90;;;13.20;99.90;;;;;;4946987;28;20518;-86
2023/08/08 04:11:35;;;;;;;2.50;0.88;;;13.20;99.90;;;;;;4948303;28;20031;-85
2023/08/08 04:14:02;;;;;;;3.92;1.13;;;13.20;99.90;;;;;;4924739;29;20451;-85
2023/08/08 04:16:28;;;;;;;4.88;1.15;;;13.20;99.90;;;;;;4946402;29;20031;-83
2023/08/08 04:18:54;;;;;;;5.35;1.45;;;13.30;99.90;;;;;;4945595;28;20046;-84
2023/08/08 04:21:20;;;;;;;4.75;1.58;;;13.30;99.90;;;;;;4949140;28;20023;-84
2023/08/08 04:23:45;;;;;;;3.20;1.70;;;13.30;99.90;;;;;;4932441;29;20043;-83
2023/08/08 04:26:11;;;;;;;8.75;2.30;;;13.30;99.90;;;;;;4924679;29;20102;-84
2023/08/08 04:28:37;;;;;;;5.72;1.92;;;13.40;99.90;;;;;;4938222;29;20117;-86
2023/08/08 04:31:03;;;;;;;7.20;2.45;;;13.40;99.90;;;;;;4937293;29;20039;-82
2023/08/08 04:33:29;;;;;;;5.05;2.08;;;13.40;99.90;;;;;;4937413;29;20047;-84
2023/08/08 04:35:54;;;;;;;7.68;2.28;;;13.40;99.90;;;;;;4943167;29;20044;-85
2023/08/08 04:38:20;;;;;;;4.47;1.35;;;13.40;99.90;;;;;;4924248;29;20042;-83
2023/08/08 04:40:46;;;;;;;3.38;1.13;;;13.50;99.90;;;;;;4937795;29;20460;-83
2023/08/08 04:43:11;;;;;;;3.38;1.30;;;13.50;99.90;;;;;;4941530;29;20039;-82
2023/08/08 04:45:37;;;;;;;3.47;1.00;;;13.40;99.90;;;;;;4947358;29;20062;-87
2023/08/08 04:48:03;;;;;;;9.25;2.00;;;13.50;99.90;;;;;;4940041;29;20031;-82
2023/08/08 04:50:29;;;;;;;4.90;2.25;;;13.50;99.90;;;;;;4946380;28;20473;-82
2023/08/08 04:52:54;;;;;;;6.07;2.30;;;13.50;99.90;;;;;;4941137;29;20329;-82
2023/08/08 04:55:20;;;;;;;5.88;1.90;;;13.50;99.90;;;;;;4941521;29;20035;-87
2023/08/08 04:57:46;;;;;;;5.80;1.95;;;13.50;99.90;;;;;;4942830;28;20019;-81
2023/08/08 05:00:13;;;;;;;5.00;2.13;;;13.50;99.90;;;;;;4926311;29;20039;-85
2023/08/08 05:02:40;;;;;;;5.22;2.38;;;13.50;99.90;;;;;;4941040;28;20047;-83
2023/08/08 05:05:07;;;;;;;5.75;1.98;;;13.60;99.90;;;;;;4941979;29;20133;-83
2023/08/08 05:07:32;;;;;;;4.47;1.88;;;13.60;99.90;;;;;;4946887;29;20028;-82
2023/08/08 05:09:58;;;;;;;4.28;1.42;;;13.60;99.90;;;;;;4942797;29;20058;-84
2023/08/08 05:12:24;;;;;;;5.25;3.00;;;13.70;99.90;;;;;;4949554;29;20480;-86
2023/08/08 05:14:49;;;;;;;5.68;1.70;;;13.70;99.90;;;;;;4947564;29;20395;-82
2023/08/08 05:17:15;;;;;;;8.70;3.92;;;13.70;99.90;;;;;;4950621;29;20396;-82
2023/08/08 05:19:41;;;;;;;7.22;3.17;;;13.70;99.90;;;;;;4950413;29;20059;-82
2023/08/08 05:22:06;;;;;;;8.77;2.50;;;13.70;99.90;;;;;;4946448;29;20027;-86
2023/08/08 05:24:32;;;;;;;7.00;2.47;;;13.70;99.90;;;;;;4932855;29;20020;-82
2023/08/08 05:26:58;;;;;;;4.00;2.08;;;13.70;99.90;;;;;;4931375;29;20040;-85
2023/08/08 05:29:23;;;;;;;6.65;2.30;;;13.80;99.90;;;;;;4919053;29;20053;-83
2023/08/08 05:31:49;;;;;;;4.43;1.52;;;13.80;99.90;;;;;;4936835;29;20035;-85
2023/08/08 05:34:15;;;;;;;3.80;1.50;;;13.80;99.90;;;;;;4920122;28;20115;-87
2023/08/08 05:36:40;;;;;;;5.18;2.33;;;13.80;99.90;;;;;;4938401;28;20472;-83
2023/08/08 05:39:09;;;;;;;4.20;1.67;;;14.00;99.90;;;;;;4921062;28;20070;-88
2023/08/08 05:41:35;;;;;;;4.70;1.92;;;14.00;99.90;;;;;;4939297;29;20039;-84
2023/08/08 05:44:01;;;;;;;6.03;1.90;;;14.00;99.90;;;;;;4942083;29;20035;-85
2023/08/08 05:46:26;;;;;;;7.78;2.05;;;14.10;99.90;;;;;;4929978;29;20039;-80
2023/08/08 05:48:52;;;;;;;8.00;3.33;;;14.20;99.90;;;;;;4937035;28;20041;-82
2023/08/08 05:51:18;;;;;;;7.97;3.22;;;14.20;99.90;;;;;;4937476;29;20101;-83
2023/08/08 05:53:43;;;;;;;5.13;2.20;;;14.20;99.90;;;;;;4937426;29;20054;-83
2023/08/08 05:56:09;;;;;;;5.85;2.85;;;14.40;99.90;;;;;;4937916;28;20031;-81
2023/08/08 05:58:37;;;;;;;5.32;2.17;;;14.40;99.90;;;;;;4920091;28;20042;-86
2023/08/08 06:01:06;;;;;;;7.03;3.53;;;14.40;99.90;;;;;;4916404;29;20043;-85
2023/08/08 06:03:32;;;;;;;7.47;4.13;;;14.40;99.90;;;;;;4938229;28;20081;-83
2023/08/08 06:05:57;;;;;;;9.15;3.40;;;14.50;99.90;;;;;;4937317;28;20381;-83
2023/08/08 06:08:23;;;;;;;8.48;2.75;;;14.50;99.90;;;;;;4920133;28;20122;-84
2023/08/08 06:10:49;;;;;;;5.60;2.05;;;14.60;99.90;;;;;;4940177;28;20063;-85
2023/08/08 06:13:14;;;;;;;6.53;3.20;;;14.60;99.90;;;;;;4945515;28;20085;-82
2023/08/08 06:15:40;;;;;;;7.05;3.28;;;14.70;99.90;;;;;;4944989;28;20110;-82
2023/08/08 06:18:06;;;;;;;10.90;4.97;;;14.70;99.90;;;;;;4924982;28;20023;-87
2023/08/08 06:20:32;;;;;;;9.77;4.25;;;14.70;99.90;;;;;;4946800;28;20037;-81
2023/08/08 06:22:57;;;;;;;10.77;4.35;;;14.70;99.90;;;;;;4944749;28;20039;-82
2023/08/08 06:25:23;;;;;;;10.15;3.15;;;14.70;99.90;;;;;;4946736;28;20039;-82
2023/08/08 06:27:49;;;;;;;10.15;3.63;;;14.80;99.90;;;;;;4945329;28;20458;-81
2023/08/08 06:30:15;;;;;;;6.75;2.75;;;15.00;99.90;;;;;;4946272;28;20359;-81
2023/08/08 06:32:40;;;;;;;7.80;3.67;;;15.10;99.90;;;;;;4946391;28;20037;-81
2023/08/08 06:35:07;;;;;;;9.65;3.15;;;15.00;99.90;;;;;;4936884;28;20031;-83
2023/08/08 06:37:32;;;;;;;7.88;3.25;;;15.10;99.90;;;;;;4943292;28;20107;-82
2023/08/08 06:39:58;;;;;;;5.53;2.13;;;15.10;99.90;;;;;;4943908;28;20042;-83
2023/08/08 06:42:24;;;;;;;7.97;2.90;;;15.30;99.90;;;;;;4947168;28;20372;-81
2023/08/08 06:44:55;;;;;;;6.45;2.20;;;15.50;99.90;;;;;;4947588;28;20034;-82
2023/08/08 06:47:23;;;;;;;7.88;2.13;;;15.70;99.90;;;;;;4943804;28;20058;-85
2023/08/08 06:49:49;;;;;;;7.97;2.42;;;15.70;99.90;;;;;;4943489;28;20483;-81
2023/08/08 06:52:15;;;;;;;6.68;2.78;;;15.60;99.90;;;;;;4943615;28;20109;-85
2023/08/08 06:54:40;;;;;;;7.60;1.30;;;15.80;99.90;;;;;;4935153;28;20562;-81
2023/08/08 06:57:07;;;;;;;6.53;1.83;;;15.70;99.90;;;;;;4942513;28;20712;-81
2023/08/08 06:59:32;;;;;;;5.75;0.98;;;15.70;99.90;;;;;;4935524;28;20114;-81
2023/08/08 07:01:58;;;;;;;7.47;1.38;;;16.00;99.90;;;;;;4942685;28;20093;-84
2023/08/08 07:04:24;;;;;;;7.00;1.02;;;16.10;99.90;;;;;;4946556;28;20038;-82
2023/08/08 07:06:49;;;;;;;3.97;0.80;;;16.20;99.90;;;;;;4943397;28;20061;-80
2023/08/08 07:09:15;;;;;;;6.03;0.80;;;16.40;99.90;;;;;;4932731;28;20047;-80
2023/08/08 07:11:41;;;;;;;5.00;0.88;;;16.50;99.90;;;;;;4946207;28;20027;-83
2023/08/08 07:14:06;;;;;;;4.43;1.08;;;16.50;99.90;;;;;;4950726;28;20330;-82
2023/08/08 07:16:32;;;;;;;9.60;0.95;;;16.50;99.90;;;;;;4944601;28;20502;-83
2023/08/08 07:18:58;;;;;;;6.05;0.80;;;16.70;99.90;;;;;;4943632;28;20415;-80
2023/08/08 07:21:24;;;;;;;7.43;1.05;;;16.50;99.90;;;;;;4943896;28;20114;-82
2023/08/08 07:23:50;;;;;;;8.35;1.42;;;16.70;99.90;;;;;;4945545;28;20037;-80
2023/08/08 07:26:16;;;;;;;6.57;0.80;;;16.80;99.90;;;;;;4943524;28;20094;-86
2023/08/08 07:28:41;;;;;;;3.80;0.93;;;16.80;99.90;;;;;;4933799;28;20059;-81
2023/08/08 07:31:07;;;;;;;3.45;0.98;;;16.80;99.90;;;;;;4945045;28;20055;-82
2023/08/08 07:33:33;;;;;;;4.45;1.17;;;16.80;99.90;;;;;;4952166;28;20419;-84
2023/08/08 07:35:59;;;;;;;4.88;1.10;;;16.70;99.90;;;;;;4943947;28;20233;-81
2023/08/08 07:38:24;;;;;;;4.32;0.70;;;16.70;99.90;;;;;;4946549;28;20126;-82
2023/08/08 07:40:50;;;;;;;3.15;0.70;;;17.00;99.90;;;;;;4943886;28;20075;-86
2023/08/08 07:43:16;;;;;;;3.40;0.60;;;17.30;99.90;;;;;;4943719;28;20857;-84
2023/08/08 07:45:42;;;;;;;2.63;0.60;;;17.40;99.90;;;;;;4927345;28;20035;-84
2023/08/08 07:48:08;;;;;;;3.28;0.65;;;17.20;99.90;;;;;;4944500;28;20097;-86
2023/08/08 07:50:33;;;;;;;4.00;0.80;;;16.80;99.90;;;;;;4929623;28;20042;-82
2023/08/08 07:52:59;;;;;;;3.70;0.60;;;16.90;99.90;;;;;;4949824;28;20031;-82
2023/08/08 07:55:25;;;;;;;3.15;0.77;;;16.80;99.90;;;;;;4945398;28;20138;-83
2023/08/08 07:57:51;;;;;;;4.22;0.60;;;16.80;99.90;;;;;;4940124;28;20086;-83
2023/08/08 08:00:18;;;;;;;2.78;0.50;;;17.00;99.90;;;;;;4943159;28;20061;-84
2023/08/08 08:02:45;;;;;;;3.22;0.52;;;16.70;99.90;;;;;;4936233;28;20031;-83
2023/08/08 08:05:12;;;;;;;3.03;0.40;;;16.80;99.90;;;;;;4943983;28;20348;-81
2023/08/08 08:07:38;;;;;;;4.05;0.40;;;17.20;99.90;;;;;;4943012;28;20116;-84
2023/08/08 08:10:06;;;;;;;2.28;0.30;;;17.10;99.90;;;;;;4927998;28;20035;-85
2023/08/08 08:12:33;;;;;;;3.88;0.40;;;17.10;99.90;;;;;;4944671;28;20042;-83
2023/08/08 08:14:58;;;;;;;2.95;0.40;;;17.00;99.90;;;;;;4944578;28;20047;-81
2023/08/08 08:17:24;;;;;;;2.45;0.20;;;17.00;99.90;;;;;;4934104;28;20037;-83
2023/08/08 08:19:51;;;;;;;3.88;0.30;;;17.40;99.90;;;;;;4942968;28;20066;-82
2023/08/08 08:22:17;;;;;;;1.15;0.13;;;17.80;99.90;;;;;;4942489;28;20150;-82
2023/08/08 08:24:42;;;;;;;1.60;0.20;;;17.90;99.90;;;;;;4943550;28;20039;-81
2023/08/08 08:27:08;;;;;;;1.90;0.10;;;17.60;99.90;;;;;;4943934;28;20089;-82
2023/08/08 08:29:34;;;;;;;1.55;0.20;;;17.50;99.90;;;;;;4912327;28;20090;-85
2023/08/08 08:32:00;;;;;;;1.85;0.20;;;17.70;99.90;;;;;;4945245;28;20045;-86
2023/08/08 08:34:25;;;;;;;3.25;0.13;;;18.00;99.90;;;;;;4942668;28;20047;-82
2023/08/08 08:36:51;;;;;;;1.85;0.10;;;18.00;99.90;;;;;;4926189;28;20512;-84
2023/08/08 08:39:17;;;;;;;1.25;0.10;;;17.90;99.90;;;;;;4929410;28;21415;-87
2023/08/08 08:41:48;;;;;;;2.35;0.10;;;18.00;99.90;;;;;;4941478;28;20038;-84
2023/08/08 08:44:16;;;;;;;0.77;0.17;;;18.00;99.90;;;;;;4956503;28;20023;-84
2023/08/08 08:46:42;;;;;;;1.05;0.20;;;17.80;99.90;;;;;;4950601;28;21456;-87
2023/08/08 08:49:10;;;;;;;1.27;0.20;;;17.80;99.90;;;;;;4933966;28;20112;-82
2023/08/08 08:51:39;;;;;;;3.30;0.20;;;17.50;99.90;;;;;;4942402;28;20039;-81
2023/08/08 08:54:05;;;;;;;1.20;0.27;;;17.60;99.90;;;;;;4946572;28;20125;-81
2023/08/08 08:56:32;;;;;;;0.55;0.10;;;18.00;99.90;;;;;;4951196;28;20910;-82
2023/08/08 08:58:59;;;;;;;2.70;0.57;;;17.90;99.90;;;;;;4941706;28;20141;-87
2023/08/08 09:01:27;;;;;;;2.25;0.10;;;17.70;99.90;;;;;;4943578;28;20031;-82
2023/08/08 09:03:53;;;;;;;0.90;0.10;;;17.60;99.90;;;;;;4935048;28;20038;-80
2023/08/08 09:06:20;;;;;;;2.20;0.10;;;17.60;99.90;;;;;;4944279;28;20495;-81
2023/08/08 09:08:47;;;;;;;2.67;0.20;;;17.90;99.90;;;;;;4930754;28;20471;-82
2023/08/08 09:11:13;;;;;;;1.42;0.20;;;18.20;99.90;;;;;;4945662;28;20109;-87
2023/08/08 09:13:39;;;;;;;4.07;0.20;;;18.00;99.90;;;;;;4943325;28;20035;-81
2023/08/08 09:16:09;;;;;;;2.03;0.10;;;18.20;99.90;;;;;;4942446;28;20039;-85
2023/08/08 09:18:38;;;;;;;1.50;0.15;;;17.90;99.90;;;;;;4946035;28;20141;-83
2023/08/08 09:21:05;;;;;;;3.42;0.20;;;17.90;99.90;;;;;;4935100;28;20105;-85
2023/08/08 09:23:31;;;;;;;2.50;0.20;;;17.70;99.90;;;;;;4930289;28;20124;-81
2023/08/08 09:25:56;;;;;;;1.45;0.10;;;17.50;99.90;;;;;;4942243;28;20034;-81
2023/08/08 09:28:22;;;;;;;1.98;0.10;;;17.50;99.90;;;;;;4936330;28;20295;-82
2023/08/08 09:30:48;;;;;;;0.90;0.10;;;17.50;99.90;;;;;;4942434;28;20149;-85
2023/08/08 09:33:14;;;;;;;2.35;0.20;;;17.80;99.90;;;;;;4929046;28;20059;-89
2023/08/08 09:35:40;;;;;;;0.93;0.10;;;18.10;99.90;;;;;;4941923;28;20038;-82
2023/08/08 09:38:06;;;;;;;0.90;0.10;;;17.80;99.90;;;;;;4945703;28;20039;-82
2023/08/08 09:40:32;;;;;;;1.10;0.28;;;17.80;99.90;;;;;;4942382;28;20073;-89
2023/08/08 09:43:00;;;;;;;1.35;0.20;;;18.00;99.90;;;;;;4942567;28;20806;-84
2023/08/08 09:45:26;;;;;;;1.63;0.20;;;18.30;99.90;;;;;;4940811;28;20691;-86
2023/08/08 09:47:52;;;;;;;0.73;0.10;;;18.00;99.90;;;;;;4941622;28;20043;-83
2023/08/08 09:50:19;;;;;;;2.28;0.10;;;18.30;99.90;;;;;;4943285;28;20732;-84
2023/08/08 09:52:46;;;;;;;1.48;0.10;;;18.00;99.90;;;;;;4944648;28;20039;-86
2023/08/08 09:55:12;;;;;;;1.85;0.20;;;18.00;99.90;;;;;;4932089;28;20497;-82
2023/08/08 09:57:42;;;;;;;0.82;0.10;;;17.90;99.90;;;;;;4948369;28;20031;-81
2023/08/08 10:00:15;;;;;;;1.75;0.15;;;18.10;99.90;;;;;;4943771;28;20055;-84
2023/08/08 10:02:45;;;;;;;0.63;0.10;;;18.70;99.90;;;;;;4945888;28;20046;-81
2023/08/08 10:05:14;;;;;;;0.35;0.10;;;18.40;99.90;;;;;;4942709;28;20045;-82
2023/08/08 10:07:41;;;;;;;0.70;0.10;;;18.00;99.90;;;;;;4940683;28;21423;-83
2023/08/08 10:10:09;;;;;;;1.52;0.10;;;18.20;99.90;;;;;;4946443;28;20407;-83
2023/08/08 10:12:38;;;;;;;0.75;0.10;;;18.30;99.90;;;;;;4930085;28;20105;-81
2023/08/08 10:15:06;;;;;;;0.93;0.10;;;18.50;99.90;;;;;;4941316;28;20043;-81
2023/08/08 10:17:39;;;;;;;1.80;0.10;;;18.70;99.90;;;;;;4943213;28;20065;-82
2023/08/08 10:20:17;;;;;;;1.58;0.10;;;19.00;99.90;;;;;;4929592;28;20470;-81
2023/08/08 10:22:46;;;;;;;1.45;0.10;;;18.60;99.90;;;;;;4941422;28;20394;-84
2023/08/08 10:25:26;;;;;;;0.97;0.20;;;18.50;99.90;;;;;;4941440;28;20097;-81
2023/08/08 10:28:06;;;;;;;0.60;0.10;;;18.40;99.90;;;;;;4942509;28;20500;-82
2023/08/08 10:30:55;;;;;;;0.88;0.10;;;19.10;99.90;;;;;;4945920;28;20085;-88
2023/08/08 10:33:26;;;;;;;2.08;0.10;;;19.20;99.90;;;;;;4933555;28;20050;-86
2023/08/08 10:36:03;;;;;;;1.08;0.10;;;18.90;99.90;;;;;;4941665;28;20043;-81
2023/08/08 10:38:46;;;;;;;0.43;0.10;;;18.70;99.90;;;;;;4926968;28;20483;-85
2023/08/08 10:41:15;;;;;;;0.93;0.20;;;18.70;99.90;;;;;;4945706;28;20195;-84
2023/08/08 10:43:52;;;;;;;1.13;0.10;;;18.30;99.90;;;;;;4943187;28;20043;-82
2023/08/08 10:46:29;;;;;;;2.33;0.10;;;18.10;99.90;;;;;;4940825;28;20035;-83
2023/08/08 10:48:59;;;;;;;0.93;0.10;;;18.30;99.90;;;;;;4948667;28;20468;-83
2023/08/08 10:51:46;;;;;;;2.25;0.13;;;18.70;99.90;;;;;;4945321;28;20154;-81
2023/08/08 10:54:14;;;;;;;0.65;0.10;;;19.30;99.90;;;;;;4943450;28;20047;-85
2023/08/08 10:56:40;;;;;;;0.98;0.10;;;18.90;99.90;;;;;;4943186;28;20150;-83
2023/08/08 10:59:15;;;;;;;1.75;0.10;;;18.30;99.90;;;;;;4939346;28;20034;-81
2023/08/08 11:01:42;;;;;;;0.93;0.17;;;18.20;99.90;;;;;;4938066;28;20059;-83
2023/08/08 11:04:07;;;;;;;1.58;0.10;;;18.70;99.90;;;;;;4926606;28;20042;-87
2023/08/08 11:06:34;;;;;;;1.85;0.10;;;19.00;99.90;;;;;;4948100;28;20035;-81
2023/08/08 11:09:01;;;;;;;0.38;0.10;;;19.00;99.90;;;;;;4930161;28;20046;-81
2023/08/08 11:11:26;;;;;;;0.70;0.10;;;18.70;99.90;;;;;;4948537;28;20035;-84
2023/08/08 11:13:52;;;;;;;1.95;0.20;;;18.30;99.90;;;;;;4931475;28;20105;-82
2023/08/08 11:16:19;;;;;;;0.65;0.17;;;18.90;99.90;;;;;;4948074;28;20542;-84
2023/08/08 11:18:45;;;;;;;1.25;0.30;;;19.10;99.90;;;;;;4946106;28;20058;-86
2023/08/08 11:21:12;;;;;;;1.67;0.20;;;19.30;99.90;;;;;;4945175;28;20035;-83
2023/08/08 11:23:38;;;;;;;0.65;0.10;;;19.50;99.90;;;;;;4941751;28;20684;-84
2023/08/08 11:26:04;;;;;;;0.45;0.10;;;19.50;99.90;;;;;;4937380;28;20031;-88
2023/08/08 11:28:30;;;;;;;1.02;0.17;;;19.40;99.90;;;;;;4944525;28;20068;-80
2023/08/08 11:30:56;;;;;;;1.50;0.10;;;18.70;99.90;;;;;;4943141;28;20046;-83
2023/08/08 11:33:22;;;;;;;1.63;0.40;;;18.40;99.90;;;;;;4947810;28;20043;-80
2023/08/08 11:35:49;;;;;;;1.83;0.20;;;18.50;99.90;;;;;;4930314;28;20073;-85
2023/08/08 11:38:15;;;;;;;1.35;0.20;;;18.30;99.90;;;;;;4947813;28;20440;-80
2023/08/08 11:40:42;;;;;;;0.90;0.20;;;18.60;99.90;;;;;;4929834;28;20042;-79
2023/08/08 11:43:08;;;;;;;1.10;0.10;;;19.10;99.90;;;;;;4949048;28;20034;-81
2023/08/08 11:45:34;;;;;;;2.22;0.10;;;19.10;99.90;;;;;;4931824;28;20150;-83
2023/08/08 11:48:01;;;;;;;1.27;0.10;;;19.10;99.90;;;;;;4944275;28;20184;-84
2023/08/08 11:50:28;;;;;;;4.82;0.28;;;19.00;99.90;;;;;;4926794;28;20659;-80
2023/08/08 11:52:54;;;;;;;0.77;0.20;;;19.10;99.90;;;;;;4935803;28;20530;-83
2023/08/08 11:55:22;;;;;;;0.55;0.20;;;18.90;99.90;;;;;;4942867;28;20078;-91
2023/08/08 11:57:48;;;;;;;1.52;0.17;;;18.90;99.90;;;;;;4947245;28;20031;-81
2023/08/08 12:00:15;;;;;;;1.50;0.20;;;18.70;99.90;;;;;;4942534;28;20815;-84
2023/08/08 12:02:43;;;;;;;1.50;0.20;;;18.50;99.90;;;;;;4945130;28;20031;-85
2023/08/08 12:05:16;;;;;;;4.68;0.20;;;18.50;99.90;;;;;;4943437;28;20712;-86
2023/08/08 12:07:44;;;;;;;0.80;0.10;;;18.70;99.90;;;;;;4929747;28;20038;-80
2023/08/08 12:10:18;;;;;;;1.17;0.20;;;19.10;99.90;;;;;;4948878;28;20046;-82
2023/08/08 12:12:45;;;;;;;3.17;0.10;;;19.40;99.90;;;;;;4942020;28;20126;-85
2023/08/08 12:15:13;;;;;;;0.75;0.20;;;19.30;99.90;;;;;;4933763;28;20150;-83
2023/08/08 12:17:39;;;;;;;1.95;0.10;;;19.00;99.90;;;;;;4947006;28;20566;-80
2023/08/08 12:20:07;;;;;;;1.77;0.20;;;18.90;99.90;;;;;;4941401;28;20046;-81
2023/08/08 12:22:33;;;;;;;1.20;0.10;;;19.10;99.90;;;;;;4943455;28;20105;-81
2023/08/08 12:25:00;;;;;;;1.75;0.17;;;18.90;99.90;;;;;;4929121;28;20035;-85
2023/08/08 12:27:25;;;;;;;0.55;0.20;;;19.10;99.90;;;;;;4961214;28;20073;-81
2023/08/08 12:29:54;;;;;;;1.15;0.10;;;19.10;99.90;;;;;;4945057;28;20491;-81
2023/08/08 12:32:23;;;;;;;0.73;0.15;;;19.40;99.90;;;;;;4943742;28;20038;-86
2023/08/08 12:34:49;;;;;;;1.90;0.20;;;19.60;99.90;;;;;;4928596;28;20121;-92
2023/08/08 12:37:16;;;;;;;2.30;0.20;;;20.20;99.90;;;;;;4929622;28;20592;-88
2023/08/08 12:39:41;;;;;;;0.70;0.15;;;19.60;99.90;;;;;;4942155;28;20042;-85
2023/08/08 12:42:07;;;;;;;2.63;0.10;;;19.00;99.90;;;;;;4947062;28;20031;-81
2023/08/08 12:44:33;;;;;;;1.75;0.20;;;19.60;99.90;;;;;;4929378;28;20823;-83
2023/08/08 12:46:59;;;;;;;1.75;0.10;;;19.60;99.90;;;;;;4940435;28;20153;-85